Bayfield, Wisconsin
Current Conditions -  °F | °C
As of 11:53 AM on Friday 24 Oct 2014 (Local Time) from KASX Reporting Station
Clear Clear  
Wind Chill: 63°   Ceiling: Unl
Heat Index: 63°   Visibility: 10mi
Dew Point: 46°   Wind: 10mph
Humidity: 54%   Direction: 210°SSW
Pressure: 29.86"   Gusts: 18mph
Location:  46.81°N, 90.82°W
Report Text: KASX 241653Z AUTO 21009G16KT 10SM CLR 17/08 A2986 RMK AO2 SLP117 T01720078
Loading
Personal Weather Stations






























Interactive Weather Map
Tropical Storm Tracking
New forecast layout! Learn more

10-Day Weather Forecast

Advertisements
Track Severe Weather on mobile